createdAt,value
2023-01-19T00:00:49.915Z,5.28
2023-01-19T00:03:39.231Z,4.13
2023-01-19T00:06:25.139Z,4.85
2023-01-19T00:09:10.555Z,7.43
2023-01-19T00:11:56.489Z,10.98
2023-01-19T00:14:42.686Z,11.38
2023-01-19T00:17:27.932Z,12.82
2023-01-19T00:20:13.624Z,18.13
2023-01-19T00:22:59.547Z,11.15
2023-01-19T00:25:45.200Z,8.93
2023-01-19T00:28:30.814Z,7.50
2023-01-19T00:31:16.463Z,12.18
2023-01-19T00:34:03.014Z,12.27
2023-01-19T00:36:48.456Z,9.35
2023-01-19T00:39:34.109Z,10.38
2023-01-19T00:42:38.433Z,13.75
2023-01-19T00:45:24.603Z,14.75
2023-01-19T00:48:10.289Z,10.45
2023-01-19T00:50:55.978Z,6.47
2023-01-19T00:53:41.232Z,9.07
2023-01-19T00:56:26.674Z,10.30
2023-01-19T00:59:12.177Z,6.55
2023-01-19T01:01:58.452Z,5.38
2023-01-19T01:04:44.133Z,7.95
2023-01-19T01:07:30.806Z,7.20
2023-01-19T01:10:22.549Z,6.10
2023-01-19T01:13:23.704Z,8.70
2023-01-19T01:16:11.540Z,8.15
2023-01-19T01:18:57.059Z,7.78
2023-01-19T01:21:42.333Z,7.40
2023-01-19T01:24:27.799Z,7.57
2023-01-19T01:27:13.345Z,14.70
2023-01-19T01:29:59.464Z,6.75
2023-01-19T01:32:44.871Z,7.38
2023-01-19T01:35:30.261Z,11.63
2023-01-19T01:38:16.301Z,13.35
2023-01-19T01:41:01.638Z,8.32
2023-01-19T01:43:54.189Z,15.35
2023-01-19T01:46:39.582Z,9.10
2023-01-19T01:49:24.969Z,10.15
2023-01-19T01:52:13.181Z,14.02
2023-01-19T01:54:59.521Z,11.93
2023-01-19T01:57:49.944Z,8.55
2023-01-19T02:00:55.512Z,13.55
2023-01-19T02:03:41.701Z,4.97
2023-01-19T02:06:27.517Z,3.45
2023-01-19T02:09:31.898Z,4.97
2023-01-19T02:12:36.369Z,5.30
2023-01-19T02:15:21.801Z,5.00
2023-01-19T02:18:07.138Z,11.02
2023-01-19T02:21:01.804Z,5.43
2023-01-19T02:23:50.895Z,2.78
2023-01-19T02:26:39.912Z,2.10
2023-01-19T02:29:27.588Z,2.72
2023-01-19T02:32:13.295Z,3.70
2023-01-19T02:34:58.887Z,4.25
2023-01-19T02:37:45.067Z,5.00
2023-01-19T02:40:31.121Z,4.18
2023-01-19T02:43:19.186Z,3.53
2023-01-19T02:46:05.057Z,4.18
2023-01-19T02:48:50.608Z,3.03
2023-01-19T02:51:36.105Z,1.65
2023-01-19T02:54:38.780Z,1.80
2023-01-19T02:57:33.375Z,1.67
2023-01-19T03:00:25.046Z,1.98
2023-01-19T03:03:31.104Z,1.48
2023-01-19T03:06:24.340Z,2.38
2023-01-19T03:09:28.441Z,1.80
2023-01-19T03:12:27.412Z,1.58
2023-01-19T03:15:34.455Z,0.85
2023-01-19T03:18:24.514Z,0.98
2023-01-19T03:21:13.303Z,0.77
2023-01-19T03:24:03.177Z,0.50
2023-01-19T03:26:58.747Z,0.65
2023-01-19T03:29:52.001Z,0.65
2023-01-19T03:32:43.453Z,0.80
2023-01-19T03:35:33.154Z,2.43
2023-01-19T03:38:25.082Z,0.47
2023-01-19T03:41:16.745Z,0.63
2023-01-19T03:44:02.795Z,0.90
2023-01-19T03:46:48.976Z,0.60
2023-01-19T03:49:36.171Z,0.95
2023-01-19T03:52:33.625Z,1.10
2023-01-19T03:55:19.187Z,0.70
2023-01-19T03:58:04.958Z,2.28
2023-01-19T04:00:50.556Z,2.10
2023-01-19T04:03:35.985Z,1.40
2023-01-19T04:06:22.249Z,0.98
2023-01-19T04:09:08.251Z,1.85
2023-01-19T04:11:53.628Z,1.45
2023-01-19T04:14:38.979Z,1.58
2023-01-19T04:17:24.329Z,1.52
2023-01-19T04:20:10.214Z,0.90
2023-01-19T04:23:00.043Z,1.50
2023-01-19T04:25:45.887Z,5.57
2023-01-19T04:28:32.225Z,4.70
2023-01-19T04:31:19.330Z,1.27
2023-01-19T04:34:04.498Z,2.20
2023-01-19T04:36:51.674Z,1.95
2023-01-19T04:39:36.989Z,0.68
2023-01-19T04:42:23.101Z,0.63
2023-01-19T04:45:09.093Z,0.63
2023-01-19T04:47:54.675Z,1.35
2023-01-19T04:50:40.143Z,1.00
2023-01-19T04:53:25.567Z,0.75
2023-01-19T04:56:11.088Z,4.85
2023-01-19T04:58:56.422Z,4.07
2023-01-19T05:01:41.875Z,1.95
2023-01-19T05:04:27.372Z,1.67
2023-01-19T05:07:12.709Z,1.10
2023-01-19T05:09:58.225Z,1.40
2023-01-19T05:12:43.413Z,1.90
2023-01-19T05:15:29.650Z,1.90
2023-01-19T05:18:15.218Z,0.95
2023-01-19T05:21:02.040Z,0.90
2023-01-19T05:23:47.444Z,0.93
2023-01-19T05:26:32.819Z,0.90
2023-01-19T05:29:18.379Z,1.65
2023-01-19T05:32:04.384Z,1.00
2023-01-19T05:34:49.781Z,1.17
2023-01-19T05:37:35.267Z,1.05
2023-01-19T05:40:20.513Z,1.70
2023-01-19T05:43:06.381Z,1.17
2023-01-19T05:45:52.210Z,1.10
2023-01-19T05:48:38.505Z,2.53
2023-01-19T05:51:24.000Z,1.85
2023-01-19T05:54:10.093Z,1.92
2023-01-19T05:56:55.543Z,1.45
2023-01-19T05:59:41.195Z,1.33
2023-01-19T06:02:28.723Z,4.32
2023-01-19T06:05:15.609Z,3.70
2023-01-19T06:08:01.963Z,3.92
2023-01-19T06:10:47.480Z,1.80
2023-01-19T06:13:33.407Z,2.30
2023-01-19T06:16:18.768Z,1.73
2023-01-19T06:19:04.817Z,2.58
2023-01-19T06:21:52.322Z,2.50
2023-01-19T06:24:37.860Z,1.92
2023-01-19T06:27:23.335Z,1.52
2023-01-19T06:30:09.460Z,1.02
2023-01-19T06:32:54.813Z,1.27
2023-01-19T06:35:44.146Z,2.42
2023-01-19T06:38:29.853Z,2.00
2023-01-19T06:41:15.217Z,6.65
2023-01-19T06:44:01.343Z,4.13
2023-01-19T06:46:48.896Z,3.15
2023-01-19T06:49:34.165Z,6.50
2023-01-19T06:52:20.595Z,5.75
2023-01-19T06:55:06.811Z,4.40
2023-01-19T06:57:58.268Z,2.63
2023-01-19T07:00:43.915Z,2.55
2023-01-19T07:03:29.908Z,2.72
2023-01-19T07:06:15.215Z,2.10
2023-01-19T07:09:00.603Z,2.10
2023-01-19T07:11:46.888Z,1.70
2023-01-19T07:14:34.025Z,2.00
2023-01-19T07:17:20.139Z,1.85
2023-01-19T07:20:09.884Z,1.35
2023-01-19T07:22:58.653Z,1.63
2023-01-19T07:25:46.459Z,1.50
2023-01-19T07:28:33.046Z,1.10
2023-01-19T07:31:19.253Z,1.40
2023-01-19T07:34:05.511Z,1.50
2023-01-19T07:36:50.842Z,1.50
2023-01-19T07:39:36.748Z,2.80
2023-01-19T07:42:21.929Z,2.80
2023-01-19T07:45:07.991Z,1.42
2023-01-19T07:47:53.173Z,1.48
2023-01-19T07:50:38.819Z,1.70
2023-01-19T07:53:24.247Z,1.77
2023-01-19T07:56:10.628Z,1.40
2023-01-19T07:58:56.625Z,1.60
2023-01-19T08:01:42.499Z,1.13
2023-01-19T08:04:28.782Z,1.80
2023-01-19T08:07:14.860Z,2.25
2023-01-19T08:10:00.253Z,2.72
2023-01-19T08:12:45.960Z,3.08
2023-01-19T08:15:31.389Z,2.00
2023-01-19T08:18:17.294Z,1.20
2023-01-19T08:21:02.644Z,1.23
2023-01-19T08:23:55.990Z,1.13
2023-01-19T08:26:41.119Z,1.00
2023-01-19T08:29:26.964Z,1.30
2023-01-19T08:32:12.443Z,1.83
2023-01-19T08:34:58.372Z,2.33
2023-01-19T08:37:43.796Z,3.30
2023-01-19T08:40:30.809Z,3.70
2023-01-19T08:43:17.280Z,2.00
2023-01-19T08:46:03.879Z,1.80
2023-01-19T08:48:50.411Z,3.10
2023-01-19T08:51:36.251Z,4.38
2023-01-19T08:54:21.836Z,3.00
2023-01-19T08:57:07.494Z,1.45
2023-01-19T08:59:52.856Z,2.88
2023-01-19T09:02:38.482Z,5.63
2023-01-19T09:05:24.079Z,3.28
2023-01-19T09:08:13.032Z,4.13
2023-01-19T09:10:58.544Z,8.90
2023-01-19T09:13:44.499Z,6.35
2023-01-19T09:16:29.963Z,5.60
2023-01-19T09:19:15.727Z,9.23
2023-01-19T09:22:01.561Z,5.88
2023-01-19T09:24:47.451Z,5.07
2023-01-19T09:27:32.935Z,4.03
2023-01-19T09:30:19.116Z,6.05
2023-01-19T09:33:07.461Z,8.60
2023-01-19T09:35:52.927Z,6.43
2023-01-19T09:38:38.648Z,4.82
2023-01-19T09:41:26.209Z,13.43
2023-01-19T09:44:18.892Z,20.25
2023-01-19T09:47:14.464Z,15.93
2023-01-19T09:50:16.041Z,8.38
2023-01-19T09:53:15.579Z,18.33
2023-01-19T09:56:01.018Z,15.80
2023-01-19T09:58:48.642Z,23.08
2023-01-19T10:01:56.246Z,13.68
2023-01-19T10:04:49.007Z,11.70
2023-01-19T10:10:43.062Z,5.80
2023-01-19T10:13:56.917Z,5.82
2023-01-19T10:16:57.246Z,6.72
2023-01-19T10:19:47.713Z,12.00
2023-01-19T10:22:34.660Z,9.65
2023-01-19T10:25:26.339Z,6.85
2023-01-19T10:28:16.405Z,10.43
2023-01-19T10:31:06.230Z,12.38
2023-01-19T10:33:53.448Z,12.57
2023-01-19T10:36:40.831Z,15.43
2023-01-19T10:39:26.480Z,12.30
2023-01-19T10:42:15.848Z,12.68
2023-01-19T10:45:01.320Z,9.32
2023-01-19T10:47:48.149Z,13.77
2023-01-19T10:50:39.836Z,9.68
2023-01-19T10:53:25.782Z,8.27
2023-01-19T10:56:12.546Z,7.47
2023-01-19T10:59:03.467Z,7.07
2023-01-19T11:02:17.645Z,7.10
2023-01-19T11:05:26.834Z,9.60
2023-01-19T11:08:45.759Z,8.98
2023-01-19T11:11:42.982Z,24.33
2023-01-19T11:14:31.249Z,22.60
2023-01-19T11:17:23.442Z,14.82
2023-01-19T11:23:19.925Z,10.65
2023-01-19T11:26:06.372Z,9.43
2023-01-19T11:28:54.739Z,10.30
2023-01-19T11:31:40.458Z,9.13
2023-01-19T11:34:38.781Z,8.82
2023-01-19T11:37:31.290Z,8.63
2023-01-19T11:40:17.183Z,8.88
2023-01-19T11:43:03.180Z,11.57
2023-01-19T11:45:48.901Z,11.50
2023-01-19T11:49:02.069Z,9.25
2023-01-19T11:52:03.044Z,9.45
2023-01-19T11:55:15.006Z,9.10
2023-01-19T11:58:00.935Z,6.90
2023-01-19T12:00:57.501Z,6.35
2023-01-19T12:04:14.351Z,7.82
2023-01-19T12:07:08.962Z,18.00
2023-01-19T12:10:02.446Z,10.30
2023-01-19T12:12:48.051Z,10.60
2023-01-19T12:15:41.432Z,11.10
2023-01-19T12:18:36.985Z,9.52
2023-01-19T12:21:22.526Z,9.77
2023-01-19T12:24:27.525Z,11.75
2023-01-19T12:27:44.158Z,11.25
2023-01-19T12:30:30.404Z,10.80
2023-01-19T12:33:37.471Z,7.47
2023-01-19T12:36:36.771Z,8.20
2023-01-19T12:39:23.569Z,9.23
2023-01-19T12:42:17.130Z,13.65
2023-01-19T12:45:08.740Z,11.75
2023-01-19T12:47:55.480Z,12.68
2023-01-19T12:50:46.467Z,12.35
2023-01-19T12:53:32.359Z,13.05
2023-01-19T12:56:18.106Z,16.70
2023-01-19T12:59:05.686Z,16.35
2023-01-19T13:02:29.253Z,14.93
2023-01-19T13:05:21.590Z,18.60
2023-01-19T13:08:07.282Z,29.40
2023-01-19T13:11:12.409Z,29.73
2023-01-19T13:13:57.951Z,22.77
2023-01-19T13:16:55.949Z,20.23
2023-01-19T13:20:08.301Z,20.00
2023-01-19T13:23:05.953Z,16.17
2023-01-19T13:25:54.532Z,16.95
2023-01-19T13:28:43.391Z,18.50
2023-01-19T13:31:36.328Z,19.05
2023-01-19T13:34:27.814Z,20.65
2023-01-19T13:37:19.875Z,39.45
2023-01-19T13:40:06.424Z,36.40
2023-01-19T13:42:54.229Z,39.50
2023-01-19T13:45:41.851Z,27.92
2023-01-19T13:48:27.740Z,20.65
2023-01-19T13:51:18.969Z,22.30
2023-01-19T13:54:06.175Z,20.45
2023-01-19T13:56:51.816Z,23.40
2023-01-19T13:59:37.245Z,23.95
2023-01-19T14:02:22.803Z,21.67
2023-01-19T14:05:17.023Z,23.38
2023-01-19T14:08:14.967Z,21.15
2023-01-19T14:11:02.639Z,20.58
2023-01-19T14:13:48.634Z,19.92
2023-01-19T14:16:34.044Z,20.33
2023-01-19T14:19:19.957Z,17.17
2023-01-19T14:22:05.963Z,14.32
2023-01-19T14:24:51.609Z,13.23
2023-01-19T14:27:41.812Z,11.30
2023-01-19T14:30:28.571Z,11.35
2023-01-19T14:33:34.105Z,25.70
2023-01-19T14:36:39.195Z,29.58
2023-01-19T14:39:27.801Z,36.60
2023-01-19T14:42:46.443Z,34.58
2023-01-19T14:45:38.471Z,43.60
2023-01-19T14:48:23.993Z,35.70
2023-01-19T14:51:18.107Z,36.63
2023-01-19T14:54:04.897Z,35.70
2023-01-19T14:56:54.131Z,23.92
2023-01-19T14:59:42.293Z,20.85
2023-01-19T15:02:28.079Z,20.65
2023-01-19T15:05:14.191Z,20.33
2023-01-19T15:08:02.870Z,16.83
2023-01-19T15:10:48.770Z,16.30
2023-01-19T15:13:34.623Z,18.60
2023-01-19T15:16:20.370Z,17.92
2023-01-19T15:19:06.094Z,20.23
2023-01-19T15:21:51.624Z,19.95
2023-01-19T15:24:36.989Z,18.70
2023-01-19T15:27:23.406Z,18.65
2023-01-19T15:30:25.003Z,20.33
2023-01-19T15:33:24.078Z,23.33
2023-01-19T15:36:18.484Z,24.17
2023-01-19T15:39:04.001Z,26.73
2023-01-19T15:42:00.748Z,26.95
2023-01-19T15:44:47.549Z,29.10
2023-01-19T15:47:32.967Z,29.63
2023-01-19T15:50:20.059Z,25.90
2023-01-19T15:53:06.628Z,26.02
2023-01-19T15:55:55.496Z,25.00
2023-01-19T15:58:41.573Z,24.08
2023-01-19T16:01:32.225Z,29.20
2023-01-19T16:04:18.188Z,48.90
2023-01-19T16:07:04.152Z,34.22
2023-01-19T16:09:50.171Z,27.80
2023-01-19T16:12:35.979Z,34.88
2023-01-19T16:15:22.624Z,47.40
2023-01-19T16:18:08.597Z,57.55
2023-01-19T16:20:53.873Z,57.05
2023-01-19T16:23:39.805Z,58.50
2023-01-19T16:26:29.785Z,48.40
2023-01-19T16:29:15.650Z,53.05
2023-01-19T16:32:01.138Z,43.67
2023-01-19T16:34:46.846Z,34.47
2023-01-19T16:37:32.338Z,31.17
2023-01-19T16:40:20.285Z,44.15
2023-01-19T16:43:06.281Z,39.30
2023-01-19T16:46:02.883Z,36.35
2023-01-19T16:48:48.388Z,34.20
2023-01-19T16:51:34.225Z,29.52
2023-01-19T16:54:22.256Z,29.05
2023-01-19T16:57:07.593Z,29.92
2023-01-19T16:59:53.193Z,18.20
2023-01-19T17:02:38.955Z,16.27
2023-01-19T17:05:24.883Z,23.08
2023-01-19T17:08:10.717Z,33.13
2023-01-19T17:10:56.600Z,35.60
2023-01-19T17:13:42.012Z,29.85
2023-01-19T17:16:29.253Z,29.25
2023-01-19T17:19:17.252Z,30.70
2023-01-19T17:22:02.672Z,28.42
2023-01-19T17:24:48.118Z,29.58
2023-01-19T17:27:36.049Z,55.38
2023-01-19T17:30:22.310Z,33.10
2023-01-19T17:33:08.000Z,27.63
2023-01-19T17:35:53.491Z,24.20
2023-01-19T17:38:39.699Z,19.98
2023-01-19T17:41:28.007Z,19.27
2023-01-19T17:44:13.963Z,17.13
2023-01-19T17:47:00.434Z,18.27
2023-01-19T17:49:46.691Z,12.05
2023-01-19T17:52:32.470Z,12.88
2023-01-19T17:55:18.499Z,13.82
2023-01-19T17:58:04.243Z,12.90
2023-01-19T18:00:50.328Z,14.68
2023-01-19T18:03:37.047Z,13.85
2023-01-19T18:06:23.537Z,16.88
2023-01-19T18:09:09.145Z,25.20
2023-01-19T18:11:54.710Z,26.45
2023-01-19T18:14:41.120Z,27.63
2023-01-19T18:17:27.101Z,26.75
2023-01-19T18:20:13.455Z,28.35
2023-01-19T18:22:59.750Z,21.52
2023-01-19T18:25:45.682Z,17.10
2023-01-19T18:28:31.758Z,15.65
2023-01-19T18:31:19.206Z,15.50
2023-01-19T18:34:05.283Z,12.02
2023-01-19T18:36:50.939Z,13.70
2023-01-19T18:39:36.297Z,16.77
2023-01-19T18:42:21.535Z,15.38
2023-01-19T18:45:07.619Z,13.00
2023-01-19T18:47:53.051Z,13.40
2023-01-19T18:50:38.625Z,19.98
2023-01-19T18:53:24.471Z,14.95
2023-01-19T18:56:15.723Z,16.70
2023-01-19T18:59:05.200Z,35.15
2023-01-19T19:01:50.476Z,30.45
2023-01-19T19:04:36.396Z,20.27
2023-01-19T19:07:21.742Z,17.15
2023-01-19T19:10:07.835Z,14.48
2023-01-19T19:12:53.332Z,14.23
2023-01-19T19:15:39.009Z,14.93
2023-01-19T19:18:24.673Z,13.88
2023-01-19T19:21:12.312Z,13.18
2023-01-19T19:23:58.781Z,11.43
2023-01-19T19:26:44.820Z,12.63
2023-01-19T19:29:30.758Z,12.02
2023-01-19T19:32:20.510Z,12.13
2023-01-19T19:35:11.404Z,17.25
2023-01-19T19:37:57.915Z,20.83
2023-01-19T19:40:43.681Z,21.98
2023-01-19T19:43:32.201Z,20.63
2023-01-19T19:46:20.123Z,18.95
2023-01-19T19:49:05.809Z,15.82
2023-01-19T19:51:51.259Z,15.13
2023-01-19T19:54:37.201Z,16.40
2023-01-19T19:57:22.532Z,19.65
2023-01-19T20:00:08.716Z,21.02
2023-01-19T20:02:57.110Z,21.60
2023-01-19T20:06:06.124Z,22.55
2023-01-19T20:08:53.920Z,25.95
2023-01-19T20:11:39.627Z,26.08
2023-01-19T20:14:25.395Z,26.35
2023-01-19T20:17:10.787Z,25.25
2023-01-19T20:19:56.600Z,24.23
2023-01-19T20:22:42.354Z,22.98
2023-01-19T20:25:28.664Z,19.27
2023-01-19T20:28:14.590Z,22.23
2023-01-19T20:31:19.805Z,25.00
2023-01-19T20:34:09.558Z,24.60
2023-01-19T20:36:55.888Z,23.77
2023-01-19T20:39:42.363Z,27.65
2023-01-19T20:42:28.173Z,21.73
2023-01-19T20:45:13.919Z,20.38
2023-01-19T20:47:59.543Z,27.33
2023-01-19T20:50:44.932Z,44.92
2023-01-19T20:53:31.188Z,34.03
2023-01-19T20:56:17.025Z,35.72
2023-01-19T20:59:02.844Z,37.60
2023-01-19T21:01:49.372Z,22.15
2023-01-19T21:04:35.157Z,14.75
2023-01-19T21:07:20.484Z,11.65
2023-01-19T21:10:06.181Z,13.93
2023-01-19T21:12:51.823Z,11.32
2023-01-19T21:15:37.400Z,13.85
2023-01-19T21:18:23.072Z,14.35
2023-01-19T21:21:14.891Z,8.02
2023-01-19T21:24:06.934Z,7.22
2023-01-19T21:26:52.375Z,5.60
2023-01-19T21:29:37.843Z,6.40
2023-01-19T21:32:23.734Z,6.53
2023-01-19T21:35:09.478Z,9.90
2023-01-19T21:37:55.198Z,8.40
2023-01-19T21:40:40.568Z,8.32
2023-01-19T21:43:26.854Z,6.03
2023-01-19T21:46:20.559Z,4.80
2023-01-19T21:49:08.744Z,7.32
2023-01-19T21:51:55.293Z,9.43
2023-01-19T21:54:41.128Z,13.05
2023-01-19T21:57:26.772Z,20.67
2023-01-19T22:00:12.396Z,21.25
2023-01-19T22:03:04.072Z,13.02
2023-01-19T22:05:49.780Z,15.15
2023-01-19T22:08:36.003Z,7.45
2023-01-19T22:11:23.285Z,14.02
2023-01-19T22:14:08.721Z,9.88
2023-01-19T22:16:54.425Z,7.88
2023-01-19T22:19:39.836Z,7.82
2023-01-19T22:22:25.881Z,5.93
2023-01-19T22:25:11.763Z,3.92
2023-01-19T22:27:58.741Z,3.90
2023-01-19T22:30:44.125Z,3.90
2023-01-19T22:33:30.028Z,3.85
2023-01-19T22:36:31.256Z,4.00
2023-01-19T22:39:18.188Z,3.72
2023-01-19T22:42:03.759Z,4.22
2023-01-19T22:44:49.265Z,4.43
2023-01-19T22:47:34.697Z,4.97
2023-01-19T22:50:20.040Z,4.35
2023-01-19T22:53:05.314Z,3.53
2023-01-19T22:55:50.736Z,4.80
2023-01-19T22:58:35.887Z,4.45
2023-01-19T23:01:26.820Z,4.97
2023-01-19T23:04:14.702Z,7.88
2023-01-19T23:07:00.770Z,10.02
2023-01-19T23:09:46.080Z,8.90
2023-01-19T23:12:31.577Z,9.93
2023-01-19T23:15:17.049Z,10.50
2023-01-19T23:18:02.145Z,9.98
2023-01-19T23:20:47.779Z,11.32
2023-01-19T23:23:34.825Z,10.65
2023-01-19T23:26:21.364Z,9.40
2023-01-19T23:29:12.464Z,7.50
2023-01-19T23:31:58.042Z,7.18
2023-01-19T23:34:43.276Z,7.07
2023-01-19T23:37:29.100Z,7.65
2023-01-19T23:40:14.391Z,7.65
2023-01-19T23:42:59.996Z,6.38
2023-01-19T23:45:45.426Z,6.63
2023-01-19T23:48:30.947Z,7.45
2023-01-19T23:51:22.137Z,8.98
2023-01-19T23:54:07.901Z,7.78
2023-01-19T23:56:53.519Z,6.40
2023-01-19T23:59:39.057Z,6.07
